sensor_id;sensor_type;location;lat;lon;timestamp;temperature;humidity
14727;DHT22;7454;51.256;8.176;2023-04-15T00:00:26;5.80;77.40
14727;DHT22;7454;51.256;8.176;2023-04-15T00:02:53;5.80;77.40
14727;DHT22;7454;51.256;8.176;2023-04-15T00:05:19;5.80;77.40
14727;DHT22;7454;51.256;8.176;2023-04-15T00:07:46;5.80;77.40
14727;DHT22;7454;51.256;8.176;2023-04-15T00:10:12;5.80;77.50
14727;DHT22;7454;51.256;8.176;2023-04-15T00:12:38;5.80;77.50
14727;DHT22;7454;51.256;8.176;2023-04-15T00:15:04;5.70;77.40
14727;DHT22;7454;51.256;8.176;2023-04-15T00:17:31;5.70;77.40
14727;DHT22;7454;51.256;8.176;2023-04-15T00:19:56;5.70;77.40
14727;DHT22;7454;51.256;8.176;2023-04-15T00:22:25;5.70;77.40
14727;DHT22;7454;51.256;8.176;2023-04-15T00:24:52;5.60;77.30
14727;DHT22;7454;51.256;8.176;2023-04-15T00:27:18;5.60;77.30
14727;DHT22;7454;51.256;8.176;2023-04-15T00:29:44;5.50;77.40
14727;DHT22;7454;51.256;8.176;2023-04-15T00:32:09;5.50;77.30
14727;DHT22;7454;51.256;8.176;2023-04-15T00:34:35;5.50;77.30
14727;DHT22;7454;51.256;8.176;2023-04-15T00:37:01;5.50;77.30
14727;DHT22;7454;51.256;8.176;2023-04-15T00:39:27;5.40;77.30
14727;DHT22;7454;51.256;8.176;2023-04-15T00:41:53;5.40;77.30
14727;DHT22;7454;51.256;8.176;2023-04-15T00:44:20;5.40;77.30
14727;DHT22;7454;51.256;8.176;2023-04-15T00:46:46;5.30;77.20
14727;DHT22;7454;51.256;8.176;2023-04-15T00:49:12;5.30;77.30
14727;DHT22;7454;51.256;8.176;2023-04-15T00:51:38;5.30;77.30
14727;DHT22;7454;51.256;8.176;2023-04-15T00:54:04;5.30;77.30
14727;DHT22;7454;51.256;8.176;2023-04-15T00:56:34;5.20;77.20
14727;DHT22;7454;51.256;8.176;2023-04-15T00:59:00;5.10;77.20
14727;DHT22;7454;51.256;8.176;2023-04-15T01:01:26;5.10;77.20
14727;DHT22;7454;51.256;8.176;2023-04-15T01:03:53;5.10;77.30
14727;DHT22;7454;51.256;8.176;2023-04-15T01:06:20;5.00;77.20
14727;DHT22;7454;51.256;8.176;2023-04-15T01:08:46;5.00;77.30
14727;DHT22;7454;51.256;8.176;2023-04-15T01:11:12;5.00;77.20
14727;DHT22;7454;51.256;8.176;2023-04-15T01:13:38;5.00;77.20
14727;DHT22;7454;51.256;8.176;2023-04-15T01:16:04;4.90;77.30
14727;DHT22;7454;51.256;8.176;2023-04-15T01:18:31;4.90;77.10
14727;DHT22;7454;51.256;8.176;2023-04-15T01:20:59;4.90;77.10
14727;DHT22;7454;51.256;8.176;2023-04-15T01:23:26;4.80;77.20
14727;DHT22;7454;51.256;8.176;2023-04-15T01:25:52;4.90;77.20
14727;DHT22;7454;51.256;8.176;2023-04-15T01:28:18;4.80;77.10
14727;DHT22;7454;51.256;8.176;2023-04-15T01:30:44;4.80;77.10
14727;DHT22;7454;51.256;8.176;2023-04-15T01:33:10;4.80;77.20
14727;DHT22;7454;51.256;8.176;2023-04-15T01:35:37;4.70;77.10
14727;DHT22;7454;51.256;8.176;2023-04-15T01:38:06;4.80;77.20
14727;DHT22;7454;51.256;8.176;2023-04-15T01:40:33;4.80;77.20
14727;DHT22;7454;51.256;8.176;2023-04-15T01:43:00;4.70;77.10
14727;DHT22;7454;51.256;8.176;2023-04-15T01:45:26;4.60;77.10
14727;DHT22;7454;51.256;8.176;2023-04-15T01:47:52;4.60;77.10
14727;DHT22;7454;51.256;8.176;2023-04-15T01:50:18;4.60;77.10
14727;DHT22;7454;51.256;8.176;2023-04-15T01:52:45;4.60;77.20
14727;DHT22;7454;51.256;8.176;2023-04-15T01:55:11;4.50;77.20
14727;DHT22;7454;51.256;8.176;2023-04-15T01:57:38;4.50;77.30
14727;DHT22;7454;51.256;8.176;2023-04-15T02:00:05;4.50;77.10
14727;DHT22;7454;51.256;8.176;2023-04-15T02:02:40;4.50;77.20
14727;DHT22;7454;51.256;8.176;2023-04-15T02:05:06;4.40;77.20
14727;DHT22;7454;51.256;8.176;2023-04-15T02:07:32;4.50;77.20
14727;DHT22;7454;51.256;8.176;2023-04-15T02:09:58;4.40;77.20
14727;DHT22;7454;51.256;8.176;2023-04-15T02:12:23;4.40;77.20
14727;DHT22;7454;51.256;8.176;2023-04-15T02:14:50;4.40;77.10
14727;DHT22;7454;51.256;8.176;2023-04-15T02:17:16;4.30;77.00
14727;DHT22;7454;51.256;8.176;2023-04-15T02:19:42;4.20;77.00
14727;DHT22;7454;51.256;8.176;2023-04-15T02:22:07;4.20;77.10
14727;DHT22;7454;51.256;8.176;2023-04-15T02:24:33;4.20;77.00
14727;DHT22;7454;51.256;8.176;2023-04-15T02:26:59;4.20;77.10
14727;DHT22;7454;51.256;8.176;2023-04-15T02:29:26;4.10;77.00
14727;DHT22;7454;51.256;8.176;2023-04-15T02:31:51;4.10;77.10
14727;DHT22;7454;51.256;8.176;2023-04-15T02:34:19;4.10;77.10
14727;DHT22;7454;51.256;8.176;2023-04-15T02:36:44;4.10;77.10
14727;DHT22;7454;51.256;8.176;2023-04-15T02:39:13;4.10;77.00
14727;DHT22;7454;51.256;8.176;2023-04-15T02:41:41;4.10;77.10
14727;DHT22;7454;51.256;8.176;2023-04-15T02:44:08;4.10;77.20
14727;DHT22;7454;51.256;8.176;2023-04-15T02:46:37;4.00;77.10
14727;DHT22;7454;51.256;8.176;2023-04-15T02:49:03;4.00;77.00
14727;DHT22;7454;51.256;8.176;2023-04-15T02:51:29;4.00;77.10
14727;DHT22;7454;51.256;8.176;2023-04-15T02:53:56;4.00;77.00
14727;DHT22;7454;51.256;8.176;2023-04-15T02:56:22;3.90;77.00
14727;DHT22;7454;51.256;8.176;2023-04-15T02:58:48;3.90;77.00
14727;DHT22;7454;51.256;8.176;2023-04-15T03:01:15;3.90;77.10
14727;DHT22;7454;51.256;8.176;2023-04-15T03:03:41;3.80;77.10
14727;DHT22;7454;51.256;8.176;2023-04-15T03:06:06;3.90;77.10
14727;DHT22;7454;51.256;8.176;2023-04-15T03:08:33;3.80;77.00
14727;DHT22;7454;51.256;8.176;2023-04-15T03:10:59;3.80;77.10
14727;DHT22;7454;51.256;8.176;2023-04-15T03:13:27;3.80;77.10
14727;DHT22;7454;51.256;8.176;2023-04-15T03:15:54;3.80;77.10
14727;DHT22;7454;51.256;8.176;2023-04-15T03:18:21;3.80;77.10
14727;DHT22;7454;51.256;8.176;2023-04-15T03:20:47;3.70;77.10
14727;DHT22;7454;51.256;8.176;2023-04-15T03:23:13;3.70;77.00
14727;DHT22;7454;51.256;8.176;2023-04-15T03:25:39;3.70;77.00
14727;DHT22;7454;51.256;8.176;2023-04-15T03:28:06;3.70;77.00
14727;DHT22;7454;51.256;8.176;2023-04-15T03:30:32;3.60;77.00
14727;DHT22;7454;51.256;8.176;2023-04-15T03:32:58;3.60;77.20
14727;DHT22;7454;51.256;8.176;2023-04-15T03:35:24;3.70;77.20
14727;DHT22;7454;51.256;8.176;2023-04-15T03:37:50;3.60;77.00
14727;DHT22;7454;51.256;8.176;2023-04-15T03:40:16;3.70;77.10
14727;DHT22;7454;51.256;8.176;2023-04-15T03:42:41;3.70;77.10
14727;DHT22;7454;51.256;8.176;2023-04-15T03:45:07;3.70;77.20
14727;DHT22;7454;51.256;8.176;2023-04-15T03:47:33;3.70;77.10
14727;DHT22;7454;51.256;8.176;2023-04-15T03:49:59;3.60;77.10
14727;DHT22;7454;51.256;8.176;2023-04-15T03:52:25;3.70;77.20
14727;DHT22;7454;51.256;8.176;2023-04-15T03:54:50;3.70;77.20
14727;DHT22;7454;51.256;8.176;2023-04-15T03:57:16;3.70;77.20
14727;DHT22;7454;51.256;8.176;2023-04-15T03:59:42;3.70;77.20
14727;DHT22;7454;51.256;8.176;2023-04-15T04:02:08;3.60;77.20
14727;DHT22;7454;51.256;8.176;2023-04-15T04:04:33;3.70;77.20
14727;DHT22;7454;51.256;8.176;2023-04-15T04:06:59;3.60;77.20
14727;DHT22;7454;51.256;8.176;2023-04-15T04:09:25;3.60;77.10
14727;DHT22;7454;51.256;8.176;2023-04-15T04:11:50;3.60;77.20
14727;DHT22;7454;51.256;8.176;2023-04-15T04:14:16;3.60;77.10
14727;DHT22;7454;51.256;8.176;2023-04-15T04:16:42;3.60;77.20
14727;DHT22;7454;51.256;8.176;2023-04-15T04:19:07;3.60;77.10
14727;DHT22;7454;51.256;8.176;2023-04-15T04:21:33;3.60;77.10
14727;DHT22;7454;51.256;8.176;2023-04-15T04:23:59;3.60;77.10
14727;DHT22;7454;51.256;8.176;2023-04-15T04:26:25;3.60;77.10
14727;DHT22;7454;51.256;8.176;2023-04-15T04:28:51;3.50;77.10
14727;DHT22;7454;51.256;8.176;2023-04-15T04:31:17;3.50;77.10
14727;DHT22;7454;51.256;8.176;2023-04-15T04:33:43;3.50;77.20
14727;DHT22;7454;51.256;8.176;2023-04-15T04:36:08;3.50;77.20
14727;DHT22;7454;51.256;8.176;2023-04-15T04:38:34;3.50;77.10
14727;DHT22;7454;51.256;8.176;2023-04-15T04:41:00;3.50;77.10
14727;DHT22;7454;51.256;8.176;2023-04-15T04:43:26;3.50;77.20
14727;DHT22;7454;51.256;8.176;2023-04-15T04:45:51;3.40;77.10
14727;DHT22;7454;51.256;8.176;2023-04-15T04:48:17;3.50;77.20
14727;DHT22;7454;51.256;8.176;2023-04-15T04:50:43;3.50;77.20
14727;DHT22;7454;51.256;8.176;2023-04-15T04:53:09;3.50;77.20
14727;DHT22;7454;51.256;8.176;2023-04-15T04:55:35;3.50;77.30
14727;DHT22;7454;51.256;8.176;2023-04-15T04:58:01;3.50;77.20
14727;DHT22;7454;51.256;8.176;2023-04-15T05:00:27;3.50;77.30
14727;DHT22;7454;51.256;8.176;2023-04-15T05:02:54;3.50;77.30
14727;DHT22;7454;51.256;8.176;2023-04-15T05:05:19;3.60;77.30
14727;DHT22;7454;51.256;8.176;2023-04-15T05:07:45;3.60;77.30
14727;DHT22;7454;51.256;8.176;2023-04-15T05:10:12;3.50;77.30
14727;DHT22;7454;51.256;8.176;2023-04-15T05:12:39;3.60;77.30
14727;DHT22;7454;51.256;8.176;2023-04-15T05:15:05;3.60;77.30
14727;DHT22;7454;51.256;8.176;2023-04-15T05:17:31;3.60;77.40
14727;DHT22;7454;51.256;8.176;2023-04-15T05:19:59;3.60;77.30
14727;DHT22;7454;51.256;8.176;2023-04-15T05:22:26;3.60;77.40
14727;DHT22;7454;51.256;8.176;2023-04-15T05:24:51;3.60;77.40
14727;DHT22;7454;51.256;8.176;2023-04-15T05:27:17;3.60;77.40
14727;DHT22;7454;51.256;8.176;2023-04-15T05:29:43;3.60;77.40
14727;DHT22;7454;51.256;8.176;2023-04-15T05:32:09;3.60;77.30
14727;DHT22;7454;51.256;8.176;2023-04-15T05:34:35;3.70;77.40
14727;DHT22;7454;51.256;8.176;2023-04-15T05:37:00;3.70;77.40
14727;DHT22;7454;51.256;8.176;2023-04-15T05:39:26;3.70;77.40
14727;DHT22;7454;51.256;8.176;2023-04-15T05:41:52;3.80;77.50
14727;DHT22;7454;51.256;8.176;2023-04-15T05:44:17;3.80;77.50
14727;DHT22;7454;51.256;8.176;2023-04-15T05:46:43;3.80;77.50
14727;DHT22;7454;51.256;8.176;2023-04-15T05:49:10;3.80;77.50
14727;DHT22;7454;51.256;8.176;2023-04-15T05:51:36;3.90;77.50
14727;DHT22;7454;51.256;8.176;2023-04-15T05:54:02;3.90;77.50
14727;DHT22;7454;51.256;8.176;2023-04-15T05:56:27;3.90;77.50
14727;DHT22;7454;51.256;8.176;2023-04-15T05:58:53;4.00;77.60
14727;DHT22;7454;51.256;8.176;2023-04-15T06:01:19;4.00;77.50
14727;DHT22;7454;51.256;8.176;2023-04-15T06:03:45;4.10;77.60
14727;DHT22;7454;51.256;8.176;2023-04-15T06:06:11;4.10;77.60
14727;DHT22;7454;51.256;8.176;2023-04-15T06:08:36;4.10;77.60
14727;DHT22;7454;51.256;8.176;2023-04-15T06:11:02;4.20;77.60
14727;DHT22;7454;51.256;8.176;2023-04-15T06:13:28;4.20;77.60
14727;DHT22;7454;51.256;8.176;2023-04-15T06:15:54;4.20;77.60
14727;DHT22;7454;51.256;8.176;2023-04-15T06:18:19;4.30;77.70
14727;DHT22;7454;51.256;8.176;2023-04-15T06:20:46;4.30;77.70
14727;DHT22;7454;51.256;8.176;2023-04-15T06:23:14;4.40;77.80
14727;DHT22;7454;51.256;8.176;2023-04-15T06:25:40;4.40;77.80
14727;DHT22;7454;51.256;8.176;2023-04-15T06:28:06;4.50;77.80
14727;DHT22;7454;51.256;8.176;2023-04-15T06:30:32;4.50;77.90
14727;DHT22;7454;51.256;8.176;2023-04-15T06:32:57;4.60;78.00
14727;DHT22;7454;51.256;8.176;2023-04-15T06:35:23;4.70;77.80
14727;DHT22;7454;51.256;8.176;2023-04-15T06:37:49;4.60;77.80
14727;DHT22;7454;51.256;8.176;2023-04-15T06:40:14;4.70;77.90
14727;DHT22;7454;51.256;8.176;2023-04-15T06:42:40;4.80;78.00
14727;DHT22;7454;51.256;8.176;2023-04-15T06:45:06;4.90;78.10
14727;DHT22;7454;51.256;8.176;2023-04-15T06:47:33;4.90;78.00
14727;DHT22;7454;51.256;8.176;2023-04-15T06:49:58;5.00;78.00
14727;DHT22;7454;51.256;8.176;2023-04-15T06:52:24;5.10;78.00
14727;DHT22;7454;51.256;8.176;2023-04-15T06:54:49;5.20;78.10
14727;DHT22;7454;51.256;8.176;2023-04-15T06:57:15;5.20;78.00
14727;DHT22;7454;51.256;8.176;2023-04-15T06:59:41;5.30;77.90
14727;DHT22;7454;51.256;8.176;2023-04-15T07:02:07;5.30;77.90
14727;DHT22;7454;51.256;8.176;2023-04-15T07:04:36;5.40;78.00
14727;DHT22;7454;51.256;8.176;2023-04-15T07:07:02;5.50;77.90
14727;DHT22;7454;51.256;8.176;2023-04-15T07:09:30;5.60;78.10
14727;DHT22;7454;51.256;8.176;2023-04-15T07:11:56;5.70;77.90
14727;DHT22;7454;51.256;8.176;2023-04-15T07:14:22;5.70;78.00
14727;DHT22;7454;51.256;8.176;2023-04-15T07:16:47;5.90;78.10
14727;DHT22;7454;51.256;8.176;2023-04-15T07:19:13;5.90;78.50
14727;DHT22;7454;51.256;8.176;2023-04-15T07:21:39;6.10;78.60
14727;DHT22;7454;51.256;8.176;2023-04-15T07:24:04;6.20;78.70
14727;DHT22;7454;51.256;8.176;2023-04-15T07:26:31;6.30;78.70
14727;DHT22;7454;51.256;8.176;2023-04-15T07:28:56;6.30;78.70
14727;DHT22;7454;51.256;8.176;2023-04-15T07:31:22;6.40;78.60
14727;DHT22;7454;51.256;8.176;2023-04-15T07:33:47;6.50;78.80
14727;DHT22;7454;51.256;8.176;2023-04-15T07:36:13;6.60;78.70
14727;DHT22;7454;51.256;8.176;2023-04-15T07:38:39;6.70;78.70
14727;DHT22;7454;51.256;8.176;2023-04-15T07:41:05;6.80;78.70
14727;DHT22;7454;51.256;8.176;2023-04-15T07:43:30;6.90;78.60
14727;DHT22;7454;51.256;8.176;2023-04-15T07:45:56;6.90;78.70
14727;DHT22;7454;51.256;8.176;2023-04-15T07:48:22;7.00;78.60
14727;DHT22;7454;51.256;8.176;2023-04-15T07:50:48;7.10;78.70
14727;DHT22;7454;51.256;8.176;2023-04-15T07:53:13;7.20;78.70
14727;DHT22;7454;51.256;8.176;2023-04-15T07:55:39;7.30;78.70
14727;DHT22;7454;51.256;8.176;2023-04-15T07:58:05;7.30;78.60
14727;DHT22;7454;51.256;8.176;2023-04-15T08:00:31;7.30;78.70
14727;DHT22;7454;51.256;8.176;2023-04-15T08:02:57;7.30;78.50
14727;DHT22;7454;51.256;8.176;2023-04-15T08:05:23;7.30;78.60
14727;DHT22;7454;51.256;8.176;2023-04-15T08:07:50;7.40;78.60
14727;DHT22;7454;51.256;8.176;2023-04-15T08:10:16;7.40;78.60
14727;DHT22;7454;51.256;8.176;2023-04-15T08:12:41;7.50;78.70
14727;DHT22;7454;51.256;8.176;2023-04-15T08:15:07;7.50;78.40
14727;DHT22;7454;51.256;8.176;2023-04-15T08:17:33;7.50;78.40
14727;DHT22;7454;51.256;8.176;2023-04-15T08:19:59;7.50;78.40
14727;DHT22;7454;51.256;8.176;2023-04-15T08:22:25;7.60;78.40
14727;DHT22;7454;51.256;8.176;2023-04-15T08:24:51;7.70;78.50
14727;DHT22;7454;51.256;8.176;2023-04-15T08:27:17;7.70;78.50
14727;DHT22;7454;51.256;8.176;2023-04-15T08:29:43;7.80;78.40
14727;DHT22;7454;51.256;8.176;2023-04-15T08:32:10;7.80;78.30
14727;DHT22;7454;51.256;8.176;2023-04-15T08:34:35;7.80;78.20
14727;DHT22;7454;51.256;8.176;2023-04-15T08:37:01;7.90;78.40
14727;DHT22;7454;51.256;8.176;2023-04-15T08:39:26;7.80;78.30
14727;DHT22;7454;51.256;8.176;2023-04-15T08:41:58;7.80;78.10
14727;DHT22;7454;51.256;8.176;2023-04-15T08:44:27;7.80;78.30
14727;DHT22;7454;51.256;8.176;2023-04-15T08:46:54;7.80;78.30
14727;DHT22;7454;51.256;8.176;2023-04-15T08:49:21;7.80;78.30
14727;DHT22;7454;51.256;8.176;2023-04-15T08:51:51;7.80;78.30
14727;DHT22;7454;51.256;8.176;2023-04-15T08:54:17;7.80;78.20
14727;DHT22;7454;51.256;8.176;2023-04-15T08:56:42;7.90;78.30
14727;DHT22;7454;51.256;8.176;2023-04-15T08:59:09;7.80;78.30
14727;DHT22;7454;51.256;8.176;2023-04-15T09:01:36;7.80;78.50
14727;DHT22;7454;51.256;8.176;2023-04-15T09:04:02;7.90;78.30
14727;DHT22;7454;51.256;8.176;2023-04-15T09:06:28;7.90;78.20
14727;DHT22;7454;51.256;8.176;2023-04-15T09:08:54;7.90;78.20
14727;DHT22;7454;51.256;8.176;2023-04-15T09:11:20;8.00;78.30
14727;DHT22;7454;51.256;8.176;2023-04-15T09:13:46;7.90;78.40
14727;DHT22;7454;51.256;8.176;2023-04-15T09:16:12;7.90;78.50
14727;DHT22;7454;51.256;8.176;2023-04-15T09:18:38;7.90;78.50
14727;DHT22;7454;51.256;8.176;2023-04-15T09:21:11;8.00;78.70
14727;DHT22;7454;51.256;8.176;2023-04-15T09:23:39;8.00;78.80
14727;DHT22;7454;51.256;8.176;2023-04-15T09:26:06;8.00;78.70
14727;DHT22;7454;51.256;8.176;2023-04-15T09:28:32;8.00;78.70
14727;DHT22;7454;51.256;8.176;2023-04-15T09:31:00;7.90;78.70
14727;DHT22;7454;51.256;8.176;2023-04-15T09:33:27;7.90;78.70
14727;DHT22;7454;51.256;8.176;2023-04-15T09:36:04;7.90;78.80
14727;DHT22;7454;51.256;8.176;2023-04-15T09:38:30;7.90;79.00
14727;DHT22;7454;51.256;8.176;2023-04-15T09:40:56;7.90;79.10
14727;DHT22;7454;51.256;8.176;2023-04-15T09:43:25;7.80;79.00
14727;DHT22;7454;51.256;8.176;2023-04-15T09:46:03;7.70;79.00
14727;DHT22;7454;51.256;8.176;2023-04-15T09:48:29;7.70;79.50
14727;DHT22;7454;51.256;8.176;2023-04-15T09:50:58;7.70;79.70
14727;DHT22;7454;51.256;8.176;2023-04-15T09:53:25;7.70;79.60
14727;DHT22;7454;51.256;8.176;2023-04-15T09:55:55;7.70;79.40
14727;DHT22;7454;51.256;8.176;2023-04-15T09:58:23;7.70;79.60
14727;DHT22;7454;51.256;8.176;2023-04-15T10:00:51;7.70;79.80
14727;DHT22;7454;51.256;8.176;2023-04-15T10:03:18;7.70;79.80
14727;DHT22;7454;51.256;8.176;2023-04-15T10:05:49;7.70;79.90
14727;DHT22;7454;51.256;8.176;2023-04-15T10:08:16;7.70;79.80
14727;DHT22;7454;51.256;8.176;2023-04-15T10:10:44;7.60;79.70
14727;DHT22;7454;51.256;8.176;2023-04-15T10:13:11;7.60;79.70
14727;DHT22;7454;51.256;8.176;2023-04-15T10:15:38;7.60;80.00
14727;DHT22;7454;51.256;8.176;2023-04-15T10:18:04;7.60;80.00
14727;DHT22;7454;51.256;8.176;2023-04-15T10:20:30;7.60;79.90
14727;DHT22;7454;51.256;8.176;2023-04-15T10:22:56;7.60;80.10
14727;DHT22;7454;51.256;8.176;2023-04-15T10:25:22;7.60;80.40
14727;DHT22;7454;51.256;8.176;2023-04-15T10:27:49;7.60;80.30
14727;DHT22;7454;51.256;8.176;2023-04-15T10:30:16;7.60;80.10
14727;DHT22;7454;51.256;8.176;2023-04-15T10:32:42;7.60;80.30
14727;DHT22;7454;51.256;8.176;2023-04-15T10:35:09;7.60;80.30
14727;DHT22;7454;51.256;8.176;2023-04-15T10:37:36;7.60;80.50
14727;DHT22;7454;51.256;8.176;2023-04-15T10:42:54;7.50;80.30
14727;DHT22;7454;51.256;8.176;2023-04-15T10:45:20;7.50;80.30
14727;DHT22;7454;51.256;8.176;2023-04-15T10:47:50;7.50;80.60
14727;DHT22;7454;51.256;8.176;2023-04-15T10:50:17;7.50;80.50
14727;DHT22;7454;51.256;8.176;2023-04-15T10:52:43;7.40;80.30
14727;DHT22;7454;51.256;8.176;2023-04-15T10:57:44;7.30;80.50
14727;DHT22;7454;51.256;8.176;2023-04-15T11:00:16;7.30;80.70
14727;DHT22;7454;51.256;8.176;2023-04-15T11:02:56;7.30;80.90
14727;DHT22;7454;51.256;8.176;2023-04-15T11:08:03;7.30;80.70
14727;DHT22;7454;51.256;8.176;2023-04-15T11:12:59;7.20;80.80
14727;DHT22;7454;51.256;8.176;2023-04-15T11:15:29;7.20;80.80
14727;DHT22;7454;51.256;8.176;2023-04-15T11:17:57;7.20;80.80
14727;DHT22;7454;51.256;8.176;2023-04-15T11:20:24;7.20;81.00
14727;DHT22;7454;51.256;8.176;2023-04-15T11:22:51;7.10;81.00
14727;DHT22;7454;51.256;8.176;2023-04-15T11:25:27;7.20;81.50
14727;DHT22;7454;51.256;8.176;2023-04-15T11:27:54;7.20;81.50
14727;DHT22;7454;51.256;8.176;2023-04-15T11:30:24;7.20;82.20
14727;DHT22;7454;51.256;8.176;2023-04-15T11:32:52;7.20;81.90
14727;DHT22;7454;51.256;8.176;2023-04-15T11:35:19;7.20;82.00
14727;DHT22;7454;51.256;8.176;2023-04-15T11:37:45;7.20;83.00
14727;DHT22;7454;51.256;8.176;2023-04-15T11:40:12;7.20;82.10
14727;DHT22;7454;51.256;8.176;2023-04-15T11:42:39;7.20;82.30
14727;DHT22;7454;51.256;8.176;2023-04-15T11:45:09;7.20;83.20
14727;DHT22;7454;51.256;8.176;2023-04-15T11:47:36;7.20;82.40
14727;DHT22;7454;51.256;8.176;2023-04-15T11:52:50;7.20;83.40
14727;DHT22;7454;51.256;8.176;2023-04-15T11:55:17;7.20;83.40
14727;DHT22;7454;51.256;8.176;2023-04-15T11:57:43;7.20;83.60
14727;DHT22;7454;51.256;8.176;2023-04-15T12:00:09;7.30;83.70
14727;DHT22;7454;51.256;8.176;2023-04-15T12:02:35;7.30;84.00
14727;DHT22;7454;51.256;8.176;2023-04-15T12:05:02;7.30;83.90
14727;DHT22;7454;51.256;8.176;2023-04-15T12:07:29;7.30;84.00
14727;DHT22;7454;51.256;8.176;2023-04-15T12:09:55;7.30;84.20
14727;DHT22;7454;51.256;8.176;2023-04-15T12:12:25;7.30;83.70
14727;DHT22;7454;51.256;8.176;2023-04-15T12:14:51;7.30;83.70
14727;DHT22;7454;51.256;8.176;2023-04-15T12:17:17;7.30;83.50
14727;DHT22;7454;51.256;8.176;2023-04-15T12:19:42;7.30;83.90
14727;DHT22;7454;51.256;8.176;2023-04-15T12:22:16;7.30;84.20
14727;DHT22;7454;51.256;8.176;2023-04-15T12:24:42;7.30;84.20
14727;DHT22;7454;51.256;8.176;2023-04-15T12:27:11;7.40;84.40
14727;DHT22;7454;51.256;8.176;2023-04-15T12:29:38;7.40;84.00
14727;DHT22;7454;51.256;8.176;2023-04-15T12:32:05;7.40;83.80
14727;DHT22;7454;51.256;8.176;2023-04-15T12:34:43;7.40;84.30
14727;DHT22;7454;51.256;8.176;2023-04-15T12:37:13;7.40;84.50
14727;DHT22;7454;51.256;8.176;2023-04-15T12:39:40;7.40;84.20
14727;DHT22;7454;51.256;8.176;2023-04-15T12:42:07;7.40;84.40
14727;DHT22;7454;51.256;8.176;2023-04-15T12:44:33;7.40;85.00
14727;DHT22;7454;51.256;8.176;2023-04-15T12:47:00;7.50;85.10
14727;DHT22;7454;51.256;8.176;2023-04-15T12:49:26;7.50;85.40
14727;DHT22;7454;51.256;8.176;2023-04-15T12:51:53;7.50;85.40
14727;DHT22;7454;51.256;8.176;2023-04-15T12:54:20;7.50;85.00
14727;DHT22;7454;51.256;8.176;2023-04-15T12:56:46;7.50;85.30
14727;DHT22;7454;51.256;8.176;2023-04-15T12:59:13;7.50;85.20
14727;DHT22;7454;51.256;8.176;2023-04-15T13:01:40;7.50;85.70
14727;DHT22;7454;51.256;8.176;2023-04-15T13:04:06;7.60;85.10
14727;DHT22;7454;51.256;8.176;2023-04-15T13:06:32;7.60;85.40
14727;DHT22;7454;51.256;8.176;2023-04-15T13:08:58;7.60;85.50
14727;DHT22;7454;51.256;8.176;2023-04-15T13:11:26;7.60;85.90
14727;DHT22;7454;51.256;8.176;2023-04-15T13:13:53;7.60;85.10
14727;DHT22;7454;51.256;8.176;2023-04-15T13:16:20;7.70;85.20
14727;DHT22;7454;51.256;8.176;2023-04-15T13:18:47;7.60;84.60
14727;DHT22;7454;51.256;8.176;2023-04-15T13:21:13;7.70;85.20
14727;DHT22;7454;51.256;8.176;2023-04-15T13:23:40;7.70;85.50
14727;DHT22;7454;51.256;8.176;2023-04-15T13:26:06;7.70;85.20
14727;DHT22;7454;51.256;8.176;2023-04-15T13:28:32;7.70;86.00
14727;DHT22;7454;51.256;8.176;2023-04-15T13:30:58;7.70;85.90
14727;DHT22;7454;51.256;8.176;2023-04-15T13:33:25;7.70;85.60
14727;DHT22;7454;51.256;8.176;2023-04-15T13:35:51;7.70;85.60
14727;DHT22;7454;51.256;8.176;2023-04-15T13:38:16;7.70;84.80
14727;DHT22;7454;51.256;8.176;2023-04-15T13:40:42;7.70;85.50
14727;DHT22;7454;51.256;8.176;2023-04-15T13:43:07;7.70;86.20
14727;DHT22;7454;51.256;8.176;2023-04-15T13:45:33;7.70;86.40
14727;DHT22;7454;51.256;8.176;2023-04-15T13:47:59;7.70;85.90
14727;DHT22;7454;51.256;8.176;2023-04-15T13:50:25;7.70;85.40
14727;DHT22;7454;51.256;8.176;2023-04-15T13:52:51;7.70;85.00
14727;DHT22;7454;51.256;8.176;2023-04-15T13:55:17;7.70;86.10
14727;DHT22;7454;51.256;8.176;2023-04-15T13:57:43;7.70;86.10
14727;DHT22;7454;51.256;8.176;2023-04-15T14:00:09;7.70;85.40
14727;DHT22;7454;51.256;8.176;2023-04-15T14:02:35;7.70;86.30
14727;DHT22;7454;51.256;8.176;2023-04-15T14:05:01;7.70;86.20
14727;DHT22;7454;51.256;8.176;2023-04-15T14:07:28;7.80;85.60
14727;DHT22;7454;51.256;8.176;2023-04-15T14:09:54;7.80;86.10
14727;DHT22;7454;51.256;8.176;2023-04-15T14:12:20;7.80;86.50
14727;DHT22;7454;51.256;8.176;2023-04-15T14:14:45;7.80;86.40
14727;DHT22;7454;51.256;8.176;2023-04-15T14:17:11;7.70;86.10
14727;DHT22;7454;51.256;8.176;2023-04-15T14:19:36;7.70;86.30
14727;DHT22;7454;51.256;8.176;2023-04-15T14:22:02;7.70;86.40
14727;DHT22;7454;51.256;8.176;2023-04-15T14:24:28;7.70;85.20
14727;DHT22;7454;51.256;8.176;2023-04-15T14:26:53;7.70;85.40
14727;DHT22;7454;51.256;8.176;2023-04-15T14:29:19;7.70;85.20
14727;DHT22;7454;51.256;8.176;2023-04-15T14:31:44;7.70;84.90
14727;DHT22;7454;51.256;8.176;2023-04-15T14:34:10;7.70;84.60
14727;DHT22;7454;51.256;8.176;2023-04-15T14:36:36;7.60;85.20
14727;DHT22;7454;51.256;8.176;2023-04-15T14:39:02;7.60;85.60
14727;DHT22;7454;51.256;8.176;2023-04-15T14:41:28;7.60;85.80
14727;DHT22;7454;51.256;8.176;2023-04-15T14:43:54;7.70;86.30
14727;DHT22;7454;51.256;8.176;2023-04-15T14:46:21;7.70;86.50
14727;DHT22;7454;51.256;8.176;2023-04-15T14:48:47;7.70;86.40
14727;DHT22;7454;51.256;8.176;2023-04-15T14:51:13;7.70;86.10
14727;DHT22;7454;51.256;8.176;2023-04-15T14:53:39;7.60;85.90
14727;DHT22;7454;51.256;8.176;2023-04-15T14:56:05;7.70;86.30
14727;DHT22;7454;51.256;8.176;2023-04-15T14:58:30;7.70;86.80
14727;DHT22;7454;51.256;8.176;2023-04-15T15:00:57;7.70;86.60
14727;DHT22;7454;51.256;8.176;2023-04-15T15:03:24;7.60;86.80
14727;DHT22;7454;51.256;8.176;2023-04-15T15:05:50;7.60;86.30
14727;DHT22;7454;51.256;8.176;2023-04-15T15:08:16;7.70;86.20
14727;DHT22;7454;51.256;8.176;2023-04-15T15:10:42;7.60;86.40
14727;DHT22;7454;51.256;8.176;2023-04-15T15:13:08;7.60;86.40
14727;DHT22;7454;51.256;8.176;2023-04-15T15:15:34;7.60;86.50
14727;DHT22;7454;51.256;8.176;2023-04-15T15:18:01;7.60;86.00
14727;DHT22;7454;51.256;8.176;2023-04-15T15:20:28;7.60;86.70
14727;DHT22;7454;51.256;8.176;2023-04-15T15:22:54;7.60;86.50
14727;DHT22;7454;51.256;8.176;2023-04-15T15:25:20;7.60;86.70
14727;DHT22;7454;51.256;8.176;2023-04-15T15:27:46;7.60;86.70
14727;DHT22;7454;51.256;8.176;2023-04-15T15:30:12;7.60;86.60
14727;DHT22;7454;51.256;8.176;2023-04-15T15:32:38;7.60;87.00
14727;DHT22;7454;51.256;8.176;2023-04-15T15:35:05;7.60;87.00
14727;DHT22;7454;51.256;8.176;2023-04-15T15:37:31;7.50;86.50
14727;DHT22;7454;51.256;8.176;2023-04-15T15:39:57;7.50;86.80
14727;DHT22;7454;51.256;8.176;2023-04-15T15:42:23;7.50;86.60
14727;DHT22;7454;51.256;8.176;2023-04-15T15:44:49;7.60;86.90
14727;DHT22;7454;51.256;8.176;2023-04-15T15:47:17;7.50;87.30
14727;DHT22;7454;51.256;8.176;2023-04-15T15:49:43;7.50;87.50
14727;DHT22;7454;51.256;8.176;2023-04-15T15:52:09;7.60;87.60
14727;DHT22;7454;51.256;8.176;2023-04-15T15:54:35;7.60;87.30
14727;DHT22;7454;51.256;8.176;2023-04-15T15:57:02;7.60;87.20
14727;DHT22;7454;51.256;8.176;2023-04-15T15:59:28;7.60;87.20
14727;DHT22;7454;51.256;8.176;2023-04-15T16:01:54;7.60;87.30
14727;DHT22;7454;51.256;8.176;2023-04-15T16:04:19;7.60;87.60
14727;DHT22;7454;51.256;8.176;2023-04-15T16:06:45;7.60;87.80
14727;DHT22;7454;51.256;8.176;2023-04-15T16:09:11;7.60;87.80